createdAt,value
2022-07-29T00:01:44.796Z,100861.66
2022-07-29T00:04:14.753Z,100843.47
2022-07-29T00:06:43.972Z,100862.13
2022-07-29T00:09:12.853Z,100861.72
2022-07-29T00:11:46.041Z,100848.34
2022-07-29T00:14:15.381Z,100842.09
2022-07-29T00:16:44.491Z,100850.97
2022-07-29T00:19:13.581Z,100856.72
2022-07-29T00:21:42.666Z,100857.34
2022-07-29T00:24:11.746Z,100849.91
2022-07-29T00:26:40.636Z,100840.38
2022-07-29T00:29:33.759Z,100856.84
2022-07-29T00:32:00.269Z,100852.66
2022-07-29T00:34:46.878Z,100860.72
2022-07-29T00:37:15.860Z,100854.59
2022-07-29T00:39:45.213Z,100856.31
2022-07-29T00:42:14.138Z,100850.97
2022-07-29T00:44:44.705Z,100841.47
2022-07-29T00:47:14.372Z,100845.97
2022-07-29T00:49:44.514Z,100835.28
2022-07-29T00:52:15.541Z,100853.59
2022-07-29T00:54:46.489Z,100787.63
2022-07-29T00:57:15.532Z,100856.97
2022-07-29T00:59:45.729Z,100851.31
2022-07-29T01:02:14.834Z,100838.63
2022-07-29T01:04:43.798Z,100845.69
2022-07-29T01:07:13.333Z,100846.56
2022-07-29T01:09:45.726Z,100844.75
2022-07-29T01:12:27.619Z,100831.59
2022-07-29T01:14:58.506Z,100845.59
2022-07-29T01:17:34.817Z,100836.13
2022-07-29T01:20:12.273Z,100837.13
2022-07-29T01:23:01.211Z,100849.47
2022-07-29T01:26:11.200Z,100844.16
2022-07-29T01:29:06.695Z,100847.56
2022-07-29T01:31:51.359Z,100714.22
2022-07-29T01:34:37.762Z,100845.56
2022-07-29T01:37:20.464Z,100840.34
2022-07-29T01:39:51.328Z,100845.22
2022-07-29T01:42:27.717Z,100842.94
2022-07-29T01:45:01.731Z,100824.44
2022-07-29T01:47:37.037Z,100835.00
2022-07-29T01:50:11.089Z,100820.69
2022-07-29T01:52:45.106Z,100842.34
2022-07-29T01:55:17.063Z,100840.00
2022-07-29T01:57:48.871Z,100836.66
2022-07-29T02:00:20.041Z,100845.34
2022-07-29T02:02:51.111Z,100846.03
2022-07-29T02:05:22.741Z,100854.72
2022-07-29T02:07:53.730Z,100853.91
2022-07-29T02:10:26.370Z,100837.47
2022-07-29T02:12:57.208Z,100850.81
2022-07-29T02:15:30.962Z,100855.25
2022-07-29T02:18:04.145Z,100871.84
2022-07-29T02:20:34.024Z,100864.59
2022-07-29T02:23:04.360Z,100866.06
2022-07-29T02:25:37.647Z,100851.44
2022-07-29T02:28:09.702Z,100864.16
2022-07-29T02:30:44.653Z,100847.22
2022-07-29T02:33:16.801Z,100856.19
2022-07-29T02:35:47.566Z,100866.41
2022-07-29T02:38:41.679Z,100870.38
2022-07-29T02:41:16.664Z,100856.75
2022-07-29T02:43:47.533Z,100870.84
2022-07-29T02:46:29.003Z,100775.38
2022-07-29T02:49:04.229Z,100869.44
2022-07-29T02:51:44.739Z,100862.44
2022-07-29T02:54:24.964Z,100850.94
2022-07-29T02:56:56.610Z,100850.91
2022-07-29T02:59:29.208Z,100863.75
2022-07-29T03:02:02.199Z,100872.31
2022-07-29T03:04:33.541Z,100871.69
2022-07-29T03:07:03.079Z,100868.56
2022-07-29T03:09:32.624Z,100872.47
2022-07-29T03:12:02.983Z,100866.88
2022-07-29T03:14:33.197Z,100876.31
2022-07-29T03:17:04.654Z,100872.47
2022-07-29T03:19:34.244Z,100786.31
2022-07-29T03:22:03.559Z,100879.09
2022-07-29T03:24:34.911Z,100871.50
2022-07-29T03:27:05.180Z,100883.69
2022-07-29T03:29:34.884Z,100882.56
2022-07-29T03:32:08.410Z,100876.47
2022-07-29T03:34:39.474Z,100875.84
2022-07-29T03:37:09.096Z,100873.22
2022-07-29T03:39:43.640Z,100875.59
2022-07-29T03:42:15.838Z,100882.03
2022-07-29T03:44:47.904Z,100862.72
2022-07-29T03:47:21.526Z,100876.16
2022-07-29T03:49:54.742Z,100833.34
2022-07-29T03:52:23.908Z,100856.88
2022-07-29T03:54:53.066Z,100879.06
2022-07-29T03:57:26.898Z,100878.41
2022-07-29T03:59:55.841Z,100879.75
2022-07-29T04:02:30.683Z,100875.38
2022-07-29T04:04:59.926Z,100859.47
2022-07-29T04:07:28.882Z,100877.94
2022-07-29T04:09:58.196Z,100873.72
2022-07-29T04:12:28.398Z,100876.59
2022-07-29T04:14:57.274Z,100876.09
2022-07-29T04:17:27.498Z,100808.22
2022-07-29T04:19:56.396Z,100886.47
2022-07-29T04:22:25.189Z,100875.66
2022-07-29T04:25:00.323Z,100892.91
2022-07-29T04:27:32.444Z,100865.84
2022-07-29T04:30:01.539Z,100883.41
2022-07-29T04:32:32.643Z,100878.97
2022-07-29T04:35:02.460Z,100876.75
2022-07-29T04:37:31.295Z,100800.16
2022-07-29T04:40:00.232Z,100861.09
2022-07-29T04:42:29.428Z,100877.31
2022-07-29T04:44:58.893Z,100873.25
2022-07-29T04:47:32.089Z,100874.16
2022-07-29T04:50:02.480Z,100870.41
2022-07-29T04:52:31.446Z,100874.03
2022-07-29T04:55:00.547Z,100864.19
2022-07-29T04:57:29.548Z,100849.69
2022-07-29T04:59:58.742Z,100862.16
2022-07-29T05:02:28.292Z,100811.19
2022-07-29T05:04:58.805Z,100878.69
2022-07-29T05:07:27.846Z,100874.25
2022-07-29T05:09:58.029Z,100851.31
2022-07-29T05:12:27.929Z,100851.09
2022-07-29T05:14:59.409Z,100851.31
2022-07-29T05:17:28.774Z,100869.13
2022-07-29T05:19:59.357Z,100852.41
2022-07-29T05:22:28.358Z,100863.84
2022-07-29T05:24:57.602Z,100828.63
2022-07-29T05:27:26.612Z,100872.97
2022-07-29T05:29:55.996Z,100871.84
2022-07-29T05:32:25.445Z,100880.91
2022-07-29T05:34:54.685Z,100852.41
2022-07-29T05:37:24.924Z,100826.22
2022-07-29T05:39:57.115Z,100842.53
2022-07-29T05:42:28.715Z,100890.47
2022-07-29T05:44:58.278Z,100886.72
2022-07-29T05:47:27.533Z,100881.59
2022-07-29T05:49:56.694Z,100878.47
2022-07-29T05:52:27.255Z,100893.47
2022-07-29T05:54:56.092Z,100891.78
2022-07-29T05:57:26.087Z,100890.44
2022-07-29T05:59:55.615Z,100891.56
2022-07-29T06:02:24.781Z,100899.63
2022-07-29T06:04:53.957Z,100893.94
2022-07-29T06:07:23.341Z,100893.72
2022-07-29T06:09:54.472Z,100891.09
2022-07-29T06:12:25.793Z,100873.72
2022-07-29T06:14:54.788Z,100892.28
2022-07-29T06:17:26.522Z,100894.94
2022-07-29T06:19:55.900Z,100880.75
2022-07-29T06:22:24.867Z,100889.28
2022-07-29T06:24:58.158Z,100891.59
2022-07-29T06:27:27.222Z,100894.72
2022-07-29T06:29:56.237Z,100888.06
2022-07-29T06:32:27.505Z,100889.94
2022-07-29T06:35:11.843Z,100879.78
2022-07-29T06:37:45.750Z,100874.34
2022-07-29T06:40:36.684Z,100877.53
2022-07-29T06:43:06.227Z,100890.38
2022-07-29T06:45:36.781Z,100891.06
2022-07-29T06:48:09.633Z,100884.56
2022-07-29T06:50:38.703Z,100880.94
2022-07-29T06:53:07.734Z,100886.81
2022-07-29T06:55:38.332Z,100893.97
2022-07-29T06:58:08.309Z,100887.75
2022-07-29T07:00:37.301Z,100866.88
2022-07-29T07:03:06.845Z,100879.72
2022-07-29T07:05:36.226Z,100879.13
2022-07-29T07:08:05.603Z,100862.88
2022-07-29T07:10:35.140Z,100885.22
2022-07-29T07:13:08.285Z,100887.94
2022-07-29T07:15:39.684Z,100891.38
2022-07-29T07:18:09.800Z,100887.19
2022-07-29T07:20:39.515Z,100883.06
2022-07-29T07:23:11.215Z,100888.63
2022-07-29T07:25:40.113Z,100902.97
2022-07-29T07:28:10.567Z,100897.50
2022-07-29T07:30:39.715Z,100907.53
2022-07-29T07:33:08.876Z,100879.81
2022-07-29T07:35:37.873Z,100811.16
2022-07-29T07:38:07.825Z,100879.38
2022-07-29T07:40:37.192Z,100889.94
2022-07-29T07:43:06.560Z,100888.28
2022-07-29T07:45:38.670Z,100895.41
2022-07-29T07:48:11.306Z,100904.28
2022-07-29T07:50:40.220Z,100893.72
2022-07-29T07:53:09.436Z,100901.75
2022-07-29T07:56:08.126Z,100888.47
2022-07-29T07:58:31.421Z,100903.00
2022-07-29T08:01:01.800Z,100909.31
2022-07-29T08:03:31.092Z,100898.31
2022-07-29T08:06:00.090Z,100910.94
2022-07-29T08:08:29.208Z,100894.94
2022-07-29T08:10:58.099Z,100896.59
2022-07-29T08:13:29.352Z,100897.94
2022-07-29T08:16:02.822Z,100904.88
2022-07-29T08:18:33.694Z,100847.47
2022-07-29T08:21:02.515Z,100896.63
2022-07-29T08:23:46.439Z,100891.63
2022-07-29T08:26:17.029Z,100901.22
2022-07-29T08:28:51.298Z,100885.09
2022-07-29T08:31:20.399Z,100878.13
2022-07-29T08:33:51.180Z,100894.75
2022-07-29T08:36:24.862Z,100895.66
2022-07-29T08:38:54.110Z,100888.63
2022-07-29T08:41:23.145Z,100889.44
2022-07-29T08:43:52.978Z,100898.47
2022-07-29T08:46:23.175Z,100858.28
2022-07-29T08:48:53.502Z,100898.63
2022-07-29T08:51:22.975Z,100899.41
2022-07-29T08:53:52.591Z,100899.44
2022-07-29T08:56:22.609Z,100890.53
2022-07-29T08:58:52.713Z,100893.97
2022-07-29T09:01:36.166Z,100898.34
2022-07-29T09:04:15.113Z,100839.91
2022-07-29T09:06:53.878Z,100883.03
2022-07-29T09:09:22.941Z,100896.38
2022-07-29T09:11:52.382Z,100885.19
2022-07-29T09:14:21.879Z,100886.13
2022-07-29T09:16:54.362Z,100888.00
2022-07-29T09:19:27.470Z,100900.16
2022-07-29T09:22:00.455Z,100885.50
2022-07-29T09:24:46.241Z,100821.28
2022-07-29T09:27:24.505Z,100887.78
2022-07-29T09:30:00.868Z,100895.09
2022-07-29T09:32:30.667Z,100896.03
2022-07-29T09:35:21.577Z,100869.00
2022-07-29T09:37:51.122Z,100829.75
2022-07-29T09:40:23.058Z,100891.00
2022-07-29T09:42:53.941Z,100890.91
2022-07-29T09:45:31.352Z,100888.38
2022-07-29T09:48:04.368Z,100889.84
2022-07-29T09:50:42.430Z,100887.94
2022-07-29T09:53:11.671Z,100893.16
2022-07-29T09:55:51.792Z,100885.06
2022-07-29T09:58:23.639Z,100885.34
2022-07-29T10:00:54.922Z,100870.91
2022-07-29T10:03:24.432Z,100809.97
2022-07-29T10:06:09.405Z,100868.75
2022-07-29T10:08:38.788Z,100866.19
2022-07-29T10:11:13.130Z,100871.16
2022-07-29T10:13:42.999Z,100867.72
2022-07-29T10:16:12.441Z,100860.69
2022-07-29T10:18:44.640Z,100854.41
2022-07-29T10:21:22.543Z,100869.78
2022-07-29T10:24:04.583Z,100860.84
2022-07-29T10:26:33.984Z,100860.88
2022-07-29T10:29:03.887Z,100858.88
2022-07-29T10:31:45.739Z,100859.44
2022-07-29T10:34:22.194Z,100864.16
2022-07-29T10:36:58.929Z,100856.66
2022-07-29T10:39:45.234Z,100828.25
2022-07-29T10:42:29.640Z,100853.19
2022-07-29T10:45:04.407Z,100849.97
2022-07-29T10:47:35.128Z,100853.19
2022-07-29T10:50:06.235Z,100842.72
2022-07-29T10:52:57.465Z,100851.72
2022-07-29T10:55:37.836Z,100857.47
2022-07-29T10:58:14.621Z,100856.63
2022-07-29T11:00:45.665Z,100859.91
2022-07-29T11:03:49.542Z,100847.63
2022-07-29T11:06:26.369Z,100838.41
2022-07-29T11:09:34.990Z,100858.63
2022-07-29T11:12:27.809Z,100846.13
2022-07-29T11:15:03.660Z,100847.88
2022-07-29T11:18:06.952Z,100848.38
2022-07-29T11:20:41.595Z,100854.31
2022-07-29T11:23:33.367Z,100832.91
2022-07-29T11:26:23.379Z,100838.00
2022-07-29T11:29:06.074Z,100839.69
2022-07-29T11:31:38.016Z,100835.34
2022-07-29T11:34:22.865Z,100839.03
2022-07-29T11:37:27.757Z,100845.44
2022-07-29T11:40:18.548Z,100833.50
2022-07-29T11:42:52.675Z,100820.34
2022-07-29T11:45:42.818Z,100841.47
2022-07-29T11:48:29.608Z,100823.56
2022-07-29T11:51:03.019Z,100820.44
2022-07-29T11:53:33.246Z,100819.06
2022-07-29T11:56:03.454Z,100823.03
2022-07-29T11:58:34.527Z,100827.19
2022-07-29T12:01:04.466Z,100821.41
2022-07-29T12:03:36.928Z,100793.34
2022-07-29T12:06:15.110Z,100795.59
2022-07-29T12:08:45.521Z,100800.69
2022-07-29T12:11:20.430Z,100819.06
2022-07-29T12:13:51.625Z,100811.97
2022-07-29T12:16:26.494Z,100807.56
2022-07-29T12:19:03.846Z,100815.09
2022-07-29T12:21:56.990Z,100815.44
2022-07-29T12:24:29.939Z,100800.75
2022-07-29T12:26:59.896Z,100811.16
2022-07-29T12:29:34.656Z,100809.38
2022-07-29T12:32:14.883Z,100778.56
2022-07-29T12:34:49.139Z,100771.03
2022-07-29T12:37:18.722Z,100805.59
2022-07-29T12:39:47.897Z,100743.78
2022-07-29T12:42:19.098Z,100808.25
2022-07-29T12:44:51.028Z,100810.25
2022-07-29T12:47:22.137Z,100802.66
2022-07-29T12:49:52.600Z,100801.53
2022-07-29T12:52:31.801Z,100777.56
2022-07-29T12:55:01.913Z,100790.19
2022-07-29T12:57:31.375Z,100785.84
2022-07-29T13:00:11.637Z,100778.97
2022-07-29T13:02:42.421Z,100776.22
2022-07-29T13:05:14.042Z,100779.41
2022-07-29T13:07:55.882Z,100779.91
2022-07-29T13:10:26.967Z,100791.38
2022-07-29T13:13:07.613Z,100776.69
2022-07-29T13:15:39.318Z,100780.63
2022-07-29T13:18:28.935Z,100774.25
2022-07-29T13:20:59.121Z,100777.28
2022-07-29T13:23:28.240Z,100778.03
2022-07-29T13:25:57.244Z,100776.75
2022-07-29T13:28:26.135Z,100712.19
2022-07-29T13:30:56.509Z,100756.78
2022-07-29T13:33:25.404Z,100753.69
2022-07-29T13:35:54.355Z,100768.25
2022-07-29T13:38:23.146Z,100772.03
2022-07-29T13:41:00.543Z,100754.94
2022-07-29T13:43:29.587Z,100780.56
2022-07-29T13:45:59.950Z,100779.59
2022-07-29T13:48:28.849Z,100776.84
2022-07-29T13:50:58.860Z,100782.06
2022-07-29T13:53:28.884Z,100776.13
2022-07-29T13:55:57.920Z,100775.78
2022-07-29T13:58:26.760Z,100766.19
2022-07-29T14:00:55.593Z,100786.94
2022-07-29T14:03:26.132Z,100777.59
2022-07-29T14:05:54.985Z,100780.56
2022-07-29T14:08:24.323Z,100770.00
2022-07-29T14:10:54.523Z,100759.19
2022-07-29T14:13:25.252Z,100763.28
2022-07-29T14:15:54.865Z,100764.06
2022-07-29T14:18:25.519Z,100724.75
2022-07-29T14:20:54.503Z,100765.81
2022-07-29T14:23:23.373Z,100755.34
2022-07-29T14:25:52.349Z,100765.97
2022-07-29T14:28:22.854Z,100760.06
2022-07-29T14:30:54.811Z,100758.38
2022-07-29T14:33:25.303Z,100738.53
2022-07-29T14:36:01.055Z,100740.66
2022-07-29T14:38:33.307Z,100752.69
2022-07-29T14:41:02.757Z,100740.25
2022-07-29T14:43:33.159Z,100735.78
2022-07-29T14:46:07.934Z,100740.06
2022-07-29T14:48:38.772Z,100667.91
2022-07-29T14:51:07.587Z,100718.50
2022-07-29T14:53:36.433Z,100732.00
2022-07-29T14:56:33.875Z,100738.56
2022-07-29T14:58:54.744Z,100743.16
2022-07-29T15:01:23.602Z,100737.94
2022-07-29T15:03:57.984Z,100740.88
2022-07-29T15:06:28.624Z,100723.00
2022-07-29T15:08:57.703Z,100723.31
2022-07-29T15:11:26.614Z,100727.16
2022-07-29T15:13:55.653Z,100730.94
2022-07-29T15:16:25.112Z,100727.16
2022-07-29T15:18:57.739Z,100726.06
2022-07-29T15:21:30.309Z,100719.44
2022-07-29T15:23:59.367Z,100717.25
2022-07-29T15:26:28.721Z,100718.41
2022-07-29T15:28:57.767Z,100724.38
2022-07-29T15:31:26.799Z,100723.72
2022-07-29T15:34:01.274Z,100717.97
2022-07-29T15:39:24.100Z,100721.41
2022-07-29T15:41:57.776Z,100699.88
2022-07-29T15:44:27.040Z,100699.50
2022-07-29T15:47:06.165Z,100718.38
2022-07-29T15:49:47.289Z,100718.59
2022-07-29T15:52:25.745Z,100722.75
2022-07-29T15:54:57.683Z,100713.88
2022-07-29T15:57:27.045Z,100723.50
2022-07-29T15:59:56.022Z,100735.72
2022-07-29T16:02:24.881Z,100725.34
2022-07-29T16:04:55.221Z,100661.13
2022-07-29T16:07:24.151Z,100733.78
2022-07-29T16:10:00.102Z,100731.00
2022-07-29T16:12:29.340Z,100673.41
2022-07-29T16:14:58.836Z,100734.06
2022-07-29T16:17:27.914Z,100708.91
2022-07-29T16:19:58.198Z,100718.63
2022-07-29T16:22:27.085Z,100724.03
2022-07-29T16:24:56.218Z,100729.03
2022-07-29T16:27:35.628Z,100720.69
2022-07-29T16:30:10.081Z,100711.38
2022-07-29T16:32:40.037Z,100718.38
2022-07-29T16:35:10.785Z,100723.13
2022-07-29T16:37:40.519Z,100720.75
2022-07-29T16:40:11.811Z,100712.13
2022-07-29T16:42:46.990Z,100729.19
2022-07-29T16:45:16.800Z,100718.72
2022-07-29T16:47:47.130Z,100721.63
2022-07-29T16:50:19.175Z,100698.38
2022-07-29T16:52:48.380Z,100724.25
2022-07-29T16:55:17.332Z,100713.34
2022-07-29T16:57:47.036Z,100720.06
2022-07-29T17:00:17.610Z,100726.44
2022-07-29T17:02:47.076Z,100707.41
2022-07-29T17:05:17.334Z,100661.81
2022-07-29T17:07:46.564Z,100708.84
2022-07-29T17:10:15.537Z,100735.69
2022-07-29T17:12:44.800Z,100736.03
2022-07-29T17:15:14.087Z,100731.00
2022-07-29T17:17:56.563Z,100713.28
2022-07-29T17:20:33.181Z,100695.97
2022-07-29T17:23:02.752Z,100735.44
2022-07-29T17:25:31.641Z,100719.53
2022-07-29T17:28:01.232Z,100731.28
2022-07-29T17:30:30.734Z,100736.75
2022-07-29T17:32:59.824Z,100727.19
2022-07-29T17:35:48.730Z,100727.63
2022-07-29T17:38:17.714Z,100717.56
2022-07-29T17:40:46.864Z,100714.22
2022-07-29T17:43:15.928Z,100712.09
2022-07-29T17:45:49.519Z,100740.06
2022-07-29T17:48:20.205Z,100735.00
2022-07-29T17:50:50.476Z,100724.25
2022-07-29T17:53:19.965Z,100749.53
2022-07-29T17:55:50.074Z,100743.66
2022-07-29T17:58:19.100Z,100740.28
2022-07-29T18:00:48.335Z,100747.59
2022-07-29T18:03:18.039Z,100747.00
2022-07-29T18:05:47.476Z,100728.09
2022-07-29T18:08:18.095Z,100749.31
2022-07-29T18:10:47.818Z,100737.31
2022-07-29T18:13:17.937Z,100753.72
2022-07-29T18:15:48.488Z,100744.91
2022-07-29T18:18:18.416Z,100756.66
2022-07-29T18:20:47.908Z,100753.72
2022-07-29T18:23:18.196Z,100765.28
2022-07-29T18:25:47.291Z,100716.28
2022-07-29T18:28:16.446Z,100770.53
2022-07-29T18:30:47.513Z,100770.31
2022-07-29T18:33:22.048Z,100762.97
2022-07-29T18:36:10.634Z,100772.97
2022-07-29T18:38:42.474Z,100776.56
2022-07-29T18:41:11.682Z,100753.22
2022-07-29T18:43:40.622Z,100773.03
2022-07-29T18:46:09.581Z,100783.56
2022-07-29T18:48:39.286Z,100760.81
2022-07-29T18:51:11.043Z,100777.19
2022-07-29T18:53:40.433Z,100778.69
2022-07-29T18:56:10.564Z,100781.41
2022-07-29T18:58:39.454Z,100782.00
2022-07-29T19:01:09.914Z,100774.66
2022-07-29T19:03:41.388Z,100743.91
2022-07-29T19:06:13.356Z,100754.47
2022-07-29T19:08:42.214Z,100783.56
2022-07-29T19:11:13.230Z,100735.25
2022-07-29T19:13:42.454Z,100778.56
2022-07-29T19:16:13.475Z,100762.84
2022-07-29T19:18:43.205Z,100771.84
2022-07-29T19:21:12.346Z,100750.59
2022-07-29T19:24:06.184Z,100700.09
2022-07-29T19:26:31.759Z,100774.13
2022-07-29T19:29:00.921Z,100758.09
2022-07-29T19:31:30.090Z,100766.03
2022-07-29T19:33:59.217Z,100758.47
2022-07-29T19:36:28.598Z,100775.75
2022-07-29T19:38:57.458Z,100776.63
2022-07-29T19:41:26.334Z,100778.56
2022-07-29T19:43:58.090Z,100757.09
2022-07-29T19:46:29.070Z,100759.22
2022-07-29T19:48:58.554Z,100767.81
2022-07-29T19:51:27.843Z,100749.06
2022-07-29T19:53:56.823Z,100759.66
2022-07-29T19:56:27.312Z,100760.25
2022-07-29T19:58:58.972Z,100752.59
2022-07-29T20:01:28.178Z,100759.34
2022-07-29T20:03:57.084Z,100761.63
2022-07-29T20:06:27.181Z,100754.09
2022-07-29T20:08:58.749Z,100756.47
2022-07-29T20:11:29.898Z,100735.19
2022-07-29T20:14:02.447Z,100769.09
2022-07-29T20:16:31.408Z,100760.59
2022-07-29T20:19:00.423Z,100760.97
2022-07-29T20:21:29.430Z,100764.78
2022-07-29T20:24:00.687Z,100762.66
2022-07-29T20:26:29.580Z,100741.22
2022-07-29T20:28:58.752Z,100766.03
2022-07-29T20:31:30.668Z,100747.97
2022-07-29T20:33:59.762Z,100755.50
2022-07-29T20:36:29.301Z,100762.63
2022-07-29T20:39:00.173Z,100753.72
2022-07-29T20:41:29.492Z,100765.66
2022-07-29T20:43:58.512Z,100759.91
2022-07-29T20:46:28.853Z,100765.53
2022-07-29T20:48:57.805Z,100766.41
2022-07-29T20:51:26.880Z,100771.81
2022-07-29T20:53:56.026Z,100769.53
2022-07-29T20:56:25.089Z,100770.97
2022-07-29T20:58:54.004Z,100763.84
2022-07-29T21:01:22.826Z,100742.78
2022-07-29T21:03:53.175Z,100766.31
2022-07-29T21:06:22.436Z,100743.38
2022-07-29T21:08:51.879Z,100756.63
2022-07-29T21:11:21.308Z,100767.34
2022-07-29T21:14:17.409Z,100766.97
2022-07-29T21:16:46.529Z,100768.81
2022-07-29T21:19:16.729Z,100780.59
2022-07-29T21:21:45.831Z,100776.75
2022-07-29T21:24:14.774Z,100775.50
2022-07-29T21:26:50.620Z,100767.91
2022-07-29T21:29:28.030Z,100782.34
2022-07-29T21:31:57.114Z,100767.84
2022-07-29T21:34:28.202Z,100784.44
2022-07-29T21:36:57.084Z,100769.28
2022-07-29T21:39:26.144Z,100780.06
2022-07-29T21:41:55.182Z,100767.84
2022-07-29T21:44:24.022Z,100778.44
2022-07-29T21:46:52.951Z,100771.69
2022-07-29T21:49:22.057Z,100783.84
2022-07-29T21:51:52.401Z,100772.31
2022-07-29T21:54:21.529Z,100775.88
2022-07-29T21:56:51.381Z,100715.03
2022-07-29T21:59:20.909Z,100695.69
2022-07-29T22:01:49.861Z,100760.75
2022-07-29T22:04:18.892Z,100781.66
2022-07-29T22:06:47.708Z,100788.19
2022-07-29T22:09:18.008Z,100743.75
2022-07-29T22:11:47.952Z,100793.47
2022-07-29T22:14:18.449Z,100786.00
2022-07-29T22:16:48.031Z,100796.31
2022-07-29T22:19:17.010Z,100794.59
2022-07-29T22:21:47.458Z,100794.06
2022-07-29T22:24:17.606Z,100786.88
2022-07-29T22:26:46.874Z,100795.25
2022-07-29T22:29:17.721Z,100796.81
2022-07-29T22:31:49.246Z,100794.25
2022-07-29T22:34:18.161Z,100781.66
2022-07-29T22:36:46.993Z,100781.16
2022-07-29T22:39:17.585Z,100789.31
2022-07-29T22:41:46.577Z,100777.19
2022-07-29T22:44:15.569Z,100710.16
2022-07-29T22:46:44.599Z,100772.03
2022-07-29T22:49:13.530Z,100765.69
2022-07-29T22:51:42.384Z,100769.38
2022-07-29T22:54:11.172Z,100758.41
2022-07-29T22:56:41.302Z,100762.03
2022-07-29T22:59:10.295Z,100757.16
2022-07-29T23:01:39.148Z,100736.19
2022-07-29T23:04:08.428Z,100742.56
2022-07-29T23:06:37.477Z,100738.28
2022-07-29T23:09:06.429Z,100751.19
2022-07-29T23:11:35.455Z,100756.50
2022-07-29T23:14:09.522Z,100765.13
2022-07-29T23:16:38.735Z,100696.06
2022-07-29T23:19:07.799Z,100750.25
2022-07-29T23:21:36.762Z,100761.53
2022-07-29T23:24:05.753Z,100759.09
2022-07-29T23:26:36.847Z,100717.84
2022-07-29T23:29:07.095Z,100761.53
2022-07-29T23:31:36.080Z,100755.19
2022-07-29T23:34:10.997Z,100748.84
2022-07-29T23:36:40.116Z,100674.22
2022-07-29T23:39:11.360Z,100740.31
2022-07-29T23:41:40.338Z,100725.19
2022-07-29T23:44:10.644Z,100750.00
2022-07-29T23:46:39.450Z,100753.56
2022-07-29T23:49:08.386Z,100735.69
2022-07-29T23:51:37.389Z,100679.47
2022-07-29T23:54:06.406Z,100762.59
2022-07-29T23:56:35.156Z,100670.78
2022-07-29T23:59:05.952Z,100764.81
